KSMO/SMO METAR and TAF weather

Enter ICAO airport designator
Station Type Date Time Source
KSMO METAR 2020/03/31 11:51 UTC NOAA

KSMO 311151Z AUTO 00000KT 10SM CLR 12/09 A3007 RMK AO2 SLP180 T01170094 10128 20106 58019


Station Type Date Time Source
KSMO Decoded METAR 2020/03/31 11:51 UTC NOAA

SANTA MONICA MUNICIPAL AIRPORT , CA, United States (KSMO) 34-01N 118-27W 57M
Mar 31, 2020 - 07:51 AM EDT / 2020.03.31 1151 UTC
Wind: Calm:0
Visibility: 10 mile(s):0
Sky conditions: clear
Temperature: 53.1 F (11.7 C)
Dew Point: 48.9 F (9.4 C)
Relative Humidity: 85%
Pressure (altimeter): 30.07 in. Hg (1018 hPa)
Pressure tendency: 0.06 inches (1.9 hPa) lower than three hours ago
ob: KSMO 311151Z AUTO 00000KT 10SM CLR 12/09 A3007 RMK AO2 SLP180 T01170094 10128 20106 58019
cycle: 12

Station Type Date Time Source
KSMO TAF 2020/03/31 12:36 UTC NOAA

TAF KSMO 311136Z 3112/0112 VRB03KT P6SM SCT011
FM311900 23008KT P6SM SCT250
FM010200 VRB03KT P6SM SKC
FM011100 VRB03KT P6SM FEW015

Example: see airport list